<?xml version="1.0" encoding="UTF-8" standalone="no" ?>
<gpx xmlns="http://www.topografix.com/GPX/1/1" xmlns:xsi="http://www.w3.org/2001/XMLSchema-instance" xsi:schemaLocation="http://www.topografix.com/GPX/1/1 http://www.topografix.com/GPX/1/1/gpx.xsd" version="1.1" creator="VisuGPX - https://www.visugpx.com">
  <metadata>
    <name>Pic et tour du Canigou </name>
    <desc><![CDATA[Trek effectué du dimanche 30/08/2020 vers 13h au jeudi 3 vers 10h.]]></desc>
  </metadata>
  <trk>
    <name><![CDATA[Pic et tour du Canigou _5]]></name>
    <extensions>
      <line xmlns="http://www.topografix.com/GPX/gpx_style/0/2">
        <color>0998c8</color>
        <opacity>1</opacity>
        <width>4</width>
      </line>
    </extensions>
    <trkseg>
      <trkpt lat="42.50036" lon="2.40934">
        <ele>1708.2</ele>
        <time>2020-09-03T06:00:00.000Z</time>
      </trkpt>
      <trkpt lat="42.50017" lon="2.40881">
        <ele>1716.4</ele>
        <time>2020-09-03T06:06:42.423Z</time>
        <extensions>
          <visugpx:TrkExtension xmlns:visugpx="https://www.visugpx.com/editgpx/">
            <visugpx:node>1</visugpx:node>
            </visugpx:TrkExtension>
        </extensions>
      </trkpt>
      <trkpt lat="42.50028" lon="2.40836">
        <ele>1717.5</ele>
        <time>2020-09-03T06:08:40.345Z</time>
        <extensions>
          <visugpx:TrkExtension xmlns:visugpx="https://www.visugpx.com/editgpx/">
            <visugpx:node>2</visugpx:node>
            </visugpx:TrkExtension>
        </extensions>
      </trkpt>
      <trkpt lat="42.50025" lon="2.40836">
        <ele>1717.8</ele>
        <time>2020-09-03T06:08:59.078Z</time>
      </trkpt>
      <trkpt lat="42.50025" lon="2.4083">
        <ele>1716.6</ele>
        <time>2020-09-03T06:09:00.728Z</time>
      </trkpt>
      <trkpt lat="42.50024" lon="2.40816">
        <ele>1716</ele>
        <time>2020-09-03T06:09:04.525Z</time>
      </trkpt>
      <trkpt lat="42.50024" lon="2.40803">
        <ele>1715.3</ele>
        <time>2020-09-03T06:09:08.100Z</time>
      </trkpt>
      <trkpt lat="42.50024" lon="2.40789">
        <ele>1714.8</ele>
        <time>2020-09-03T06:09:12.193Z</time>
      </trkpt>
      <trkpt lat="42.50024" lon="2.40776">
        <ele>1714.8</ele>
        <time>2020-09-03T06:09:35.207Z</time>
      </trkpt>
      <trkpt lat="42.50024" lon="2.40761">
        <ele>1715.3</ele>
        <time>2020-09-03T06:10:20.228Z</time>
      </trkpt>
      <trkpt lat="42.50025" lon="2.4075">
        <ele>1715.4</ele>
        <time>2020-09-03T06:10:42.326Z</time>
      </trkpt>
      <trkpt lat="42.50025" lon="2.40739">
        <ele>1711.2</ele>
        <time>2020-09-03T06:10:45.351Z</time>
      </trkpt>
      <trkpt lat="42.50025" lon="2.40728">
        <ele>1710.2</ele>
        <time>2020-09-03T06:10:48.376Z</time>
      </trkpt>
      <trkpt lat="42.50025" lon="2.40716">
        <ele>1709.3</ele>
        <time>2020-09-03T06:10:51.676Z</time>
      </trkpt>
      <trkpt lat="42.50025" lon="2.40704">
        <ele>1708.9</ele>
        <time>2020-09-03T06:10:55.287Z</time>
      </trkpt>
      <trkpt lat="42.50025" lon="2.40691">
        <ele>1709.1</ele>
        <time>2020-09-03T06:11:23.739Z</time>
      </trkpt>
      <trkpt lat="42.50024" lon="2.40673">
        <ele>1710.1</ele>
        <time>2020-09-03T06:12:30.636Z</time>
      </trkpt>
      <trkpt lat="42.50027" lon="2.40679">
        <ele>1709</ele>
        <time>2020-09-03T06:12:32.630Z</time>
      </trkpt>
      <trkpt lat="42.50035" lon="2.40699">
        <ele>1706.9</ele>
        <time>2020-09-03T06:12:38.887Z</time>
      </trkpt>
      <trkpt lat="42.50041" lon="2.40711">
        <ele>1706.2</ele>
        <time>2020-09-03T06:12:42.573Z</time>
      </trkpt>
      <trkpt lat="42.50048" lon="2.40725">
        <ele>1705.3</ele>
        <time>2020-09-03T06:12:47.225Z</time>
      </trkpt>
      <trkpt lat="42.50058" lon="2.40672">
        <ele>1699.7</ele>
        <time>2020-09-03T06:13:02.270Z</time>
        <extensions>
          <visugpx:TrkExtension xmlns:visugpx="https://www.visugpx.com/editgpx/">
            <visugpx:node>4</visugpx:node>
            </visugpx:TrkExtension>
        </extensions>
      </trkpt>
      <trkpt lat="42.50061" lon="2.40654">
        <ele>1695.5</ele>
        <time>2020-09-03T06:13:07.345Z</time>
      </trkpt>
      <trkpt lat="42.50085" lon="2.4049">
        <ele>1649.4</ele>
        <time>2020-09-03T06:13:53.326Z</time>
      </trkpt>
      <trkpt lat="42.50075" lon="2.40466">
        <ele>1654.8</ele>
        <time>2020-09-03T06:17:01.568Z</time>
      </trkpt>
      <trkpt lat="42.50055" lon="2.40441">
        <ele>1650.9</ele>
        <time>2020-09-03T06:17:11.713Z</time>
      </trkpt>
      <trkpt lat="42.50019" lon="2.40411">
        <ele>1646</ele>
        <time>2020-09-03T06:17:27.474Z</time>
      </trkpt>
      <trkpt lat="42.49987" lon="2.40382">
        <ele>1664</ele>
        <time>2020-09-03T06:23:23.919Z</time>
      </trkpt>
      <trkpt lat="42.5001" lon="2.4035">
        <ele>1644.4</ele>
        <time>2020-09-03T06:23:36.209Z</time>
      </trkpt>
      <trkpt lat="42.50023" lon="2.40334">
        <ele>1642.5</ele>
        <time>2020-09-03T06:23:42.757Z</time>
      </trkpt>
      <trkpt lat="42.5005" lon="2.4032">
        <ele>1643.3</ele>
        <time>2020-09-03T06:25:15.736Z</time>
      </trkpt>
      <trkpt lat="42.501" lon="2.40299">
        <ele>1620</ele>
        <time>2020-09-03T06:25:35.260Z</time>
      </trkpt>
      <trkpt lat="42.5015" lon="2.4026">
        <ele>1614.8</ele>
        <time>2020-09-03T06:25:56.774Z</time>
      </trkpt>
      <trkpt lat="42.50181" lon="2.40232">
        <ele>1608.1</ele>
        <time>2020-09-03T06:26:10.666Z</time>
      </trkpt>
      <trkpt lat="42.50195" lon="2.40207">
        <ele>1608.6</ele>
        <time>2020-09-03T06:27:19.953Z</time>
      </trkpt>
      <trkpt lat="42.50202" lon="2.40186">
        <ele>1610.4</ele>
        <time>2020-09-03T06:29:12.567Z</time>
      </trkpt>
      <trkpt lat="42.50231" lon="2.40168">
        <ele>1604.5</ele>
        <time>2020-09-03T06:29:24.463Z</time>
      </trkpt>
      <trkpt lat="42.50258" lon="2.40155">
        <ele>1598.3</ele>
        <time>2020-09-03T06:29:35.150Z</time>
      </trkpt>
      <trkpt lat="42.50279" lon="2.40135">
        <ele>1595.5</ele>
        <time>2020-09-03T06:29:44.721Z</time>
      </trkpt>
      <trkpt lat="42.50289" lon="2.40101">
        <ele>1597.1</ele>
        <time>2020-09-03T06:31:45.372Z</time>
      </trkpt>
      <trkpt lat="42.50305" lon="2.40084">
        <ele>1592.7</ele>
        <time>2020-09-03T06:31:52.953Z</time>
      </trkpt>
      <trkpt lat="42.5033" lon="2.40049">
        <ele>1600.7</ele>
        <time>2020-09-03T06:37:25.709Z</time>
      </trkpt>
      <trkpt lat="42.50362" lon="2.40022">
        <ele>1570.7</ele>
        <time>2020-09-03T06:37:39.766Z</time>
      </trkpt>
      <trkpt lat="42.50373" lon="2.39993">
        <ele>1570.3</ele>
        <time>2020-09-03T06:37:53.001Z</time>
      </trkpt>
      <trkpt lat="42.50379" lon="2.39962">
        <ele>1567.4</ele>
        <time>2020-09-03T06:38:01.814Z</time>
      </trkpt>
      <trkpt lat="42.50379" lon="2.39941">
        <ele>1566.5</ele>
        <time>2020-09-03T06:38:07.470Z</time>
      </trkpt>
      <trkpt lat="42.50374" lon="2.39902">
        <ele>1557.7</ele>
        <time>2020-09-03T06:38:18.356Z</time>
      </trkpt>
      <trkpt lat="42.50366" lon="2.39864">
        <ele>1555.2</ele>
        <time>2020-09-03T06:38:29.224Z</time>
      </trkpt>
      <trkpt lat="42.50353" lon="2.39828">
        <ele>1549.6</ele>
        <time>2020-09-03T06:38:40.247Z</time>
      </trkpt>
      <trkpt lat="42.50335" lon="2.39811">
        <ele>1550.1</ele>
        <time>2020-09-03T06:39:46.813Z</time>
      </trkpt>
      <trkpt lat="42.50311" lon="2.39804">
        <ele>1570.2</ele>
        <time>2020-09-03T06:43:34.176Z</time>
      </trkpt>
      <trkpt lat="42.5029" lon="2.39786">
        <ele>1572.5</ele>
        <time>2020-09-03T06:45:58.844Z</time>
      </trkpt>
      <trkpt lat="42.50286" lon="2.39771">
        <ele>1572.3</ele>
        <time>2020-09-03T06:46:05.288Z</time>
      </trkpt>
      <trkpt lat="42.50316" lon="2.39742">
        <ele>1564.6</ele>
        <time>2020-09-03T06:46:19.029Z</time>
      </trkpt>
      <trkpt lat="42.50372" lon="2.39704">
        <ele>1547.2</ele>
        <time>2020-09-03T06:46:42.385Z</time>
      </trkpt>
      <trkpt lat="42.50401" lon="2.39691">
        <ele>1543.5</ele>
        <time>2020-09-03T06:46:53.778Z</time>
      </trkpt>
      <trkpt lat="42.50432" lon="2.39658">
        <ele>1540.5</ele>
        <time>2020-09-03T06:47:08.477Z</time>
      </trkpt>
      <trkpt lat="42.50451" lon="2.39644">
        <ele>1539.1</ele>
        <time>2020-09-03T06:47:15.974Z</time>
      </trkpt>
      <trkpt lat="42.50472" lon="2.39636">
        <ele>1535.6</ele>
        <time>2020-09-03T06:47:24.111Z</time>
        <extensions>
          <visugpx:TrkExtension xmlns:visugpx="https://www.visugpx.com/editgpx/">
            <visugpx:node>5</visugpx:node>
            </visugpx:TrkExtension>
        </extensions>
      </trkpt>
      <trkpt lat="42.5048" lon="2.39633">
        <ele>1534.5</ele>
        <time>2020-09-03T06:47:27.207Z</time>
      </trkpt>
      <trkpt lat="42.50502" lon="2.39623">
        <ele>1514</ele>
        <time>2020-09-03T06:47:35.861Z</time>
      </trkpt>
      <trkpt lat="42.50514" lon="2.39616">
        <ele>1514.1</ele>
        <time>2020-09-03T06:48:09.592Z</time>
      </trkpt>
      <trkpt lat="42.50523" lon="2.39637">
        <ele>1510.7</ele>
        <time>2020-09-03T06:48:16.272Z</time>
      </trkpt>
      <trkpt lat="42.50526" lon="2.39651">
        <ele>1509.9</ele>
        <time>2020-09-03T06:48:20.281Z</time>
      </trkpt>
      <trkpt lat="42.5053" lon="2.39654">
        <ele>1509.3</ele>
        <time>2020-09-03T06:48:21.986Z</time>
      </trkpt>
      <trkpt lat="42.50538" lon="2.39646">
        <ele>1508.3</ele>
        <time>2020-09-03T06:48:25.693Z</time>
      </trkpt>
      <trkpt lat="42.5054" lon="2.39638">
        <ele>1508.3</ele>
        <time>2020-09-03T06:48:40.647Z</time>
      </trkpt>
      <trkpt lat="42.50539" lon="2.39634">
        <ele>1508.6</ele>
        <time>2020-09-03T06:48:59.422Z</time>
      </trkpt>
      <trkpt lat="42.50549" lon="2.39631">
        <ele>1507.1</ele>
        <time>2020-09-03T06:49:03.242Z</time>
      </trkpt>
      <trkpt lat="42.50563" lon="2.39638">
        <ele>1504.7</ele>
        <time>2020-09-03T06:49:08.808Z</time>
      </trkpt>
      <trkpt lat="42.50574" lon="2.39649">
        <ele>1502.1</ele>
        <time>2020-09-03T06:49:13.905Z</time>
      </trkpt>
      <trkpt lat="42.50593" lon="2.39671">
        <ele>1486.3</ele>
        <time>2020-09-03T06:49:23.223Z</time>
      </trkpt>
      <trkpt lat="42.506" lon="2.39679">
        <ele>1480.2</ele>
        <time>2020-09-03T06:49:26.637Z</time>
      </trkpt>
      <trkpt lat="42.50605" lon="2.39679">
        <ele>1478</ele>
        <time>2020-09-03T06:49:28.502Z</time>
      </trkpt>
      <trkpt lat="42.50608" lon="2.39669">
        <ele>1478.3</ele>
        <time>2020-09-03T06:49:57.691Z</time>
      </trkpt>
      <trkpt lat="42.50603" lon="2.39648">
        <ele>1485.7</ele>
        <time>2020-09-03T06:52:28.368Z</time>
      </trkpt>
      <trkpt lat="42.50601" lon="2.39642">
        <ele>1485.5</ele>
        <time>2020-09-03T06:52:30.424Z</time>
        <extensions>
          <visugpx:TrkExtension xmlns:visugpx="https://www.visugpx.com/editgpx/">
            <visugpx:node>6</visugpx:node>
            </visugpx:TrkExtension>
        </extensions>
      </trkpt>
      <trkpt lat="42.50595" lon="2.39616">
        <ele>1485.9</ele>
        <time>2020-09-03T06:53:29.412Z</time>
      </trkpt>
      <trkpt lat="42.50585" lon="2.39568">
        <ele>1494.8</ele>
        <time>2020-09-03T06:59:09.983Z</time>
      </trkpt>
      <trkpt lat="42.50585" lon="2.39559">
        <ele>1495.8</ele>
        <time>2020-09-03T07:00:11.434Z</time>
      </trkpt>
      <trkpt lat="42.50589" lon="2.39553">
        <ele>1496.5</ele>
        <time>2020-09-03T07:00:56.264Z</time>
      </trkpt>
      <trkpt lat="42.50594" lon="2.39554">
        <ele>1496.3</ele>
        <time>2020-09-03T07:00:58.437Z</time>
      </trkpt>
      <trkpt lat="42.50628" lon="2.39559">
        <ele>1494.6</ele>
        <time>2020-09-03T07:01:11.847Z</time>
      </trkpt>
      <trkpt lat="42.50665" lon="2.39564">
        <ele>1489.6</ele>
        <time>2020-09-03T07:01:25.717Z</time>
      </trkpt>
      <trkpt lat="42.50687" lon="2.39571">
        <ele>1485.2</ele>
        <time>2020-09-03T07:01:34.146Z</time>
      </trkpt>
      <trkpt lat="42.50714" lon="2.3957">
        <ele>1484.4</ele>
        <time>2020-09-03T07:01:46.979Z</time>
      </trkpt>
      <trkpt lat="42.50753" lon="2.39563">
        <ele>1475.7</ele>
        <time>2020-09-03T07:02:01.653Z</time>
      </trkpt>
      <trkpt lat="42.50787" lon="2.3956">
        <ele>1476.3</ele>
        <time>2020-09-03T07:03:39.201Z</time>
      </trkpt>
      <trkpt lat="42.50818" lon="2.3956">
        <ele>1472</ele>
        <time>2020-09-03T07:03:50.764Z</time>
      </trkpt>
      <trkpt lat="42.50837" lon="2.39556">
        <ele>1461.5</ele>
        <time>2020-09-03T07:03:57.936Z</time>
      </trkpt>
      <trkpt lat="42.50863" lon="2.39547">
        <ele>1461.9</ele>
        <time>2020-09-03T07:05:12.557Z</time>
      </trkpt>
      <trkpt lat="42.50885" lon="2.39544">
        <ele>1459.2</ele>
        <time>2020-09-03T07:05:20.804Z</time>
      </trkpt>
      <trkpt lat="42.50897" lon="2.39524">
        <ele>1459.7</ele>
        <time>2020-09-03T07:06:20.938Z</time>
      </trkpt>
      <trkpt lat="42.50925" lon="2.3947">
        <ele>1454.7</ele>
        <time>2020-09-03T07:06:39.091Z</time>
      </trkpt>
      <trkpt lat="42.50927" lon="2.39464">
        <ele>1455.2</ele>
        <time>2020-09-03T07:07:10.316Z</time>
        <extensions>
          <visugpx:TrkExtension xmlns:visugpx="https://www.visugpx.com/editgpx/">
            <visugpx:node>7</visugpx:node>
            </visugpx:TrkExtension>
        </extensions>
      </trkpt>
      <trkpt lat="42.50944" lon="2.39429">
        <ele>1459.2</ele>
        <time>2020-09-03T07:11:40.936Z</time>
      </trkpt>
      <trkpt lat="42.50956" lon="2.39406">
        <ele>1464.7</ele>
        <time>2020-09-03T07:14:53.319Z</time>
      </trkpt>
      <trkpt lat="42.50962" lon="2.39393">
        <ele>1463.4</ele>
        <time>2020-09-03T07:14:57.536Z</time>
      </trkpt>
      <trkpt lat="42.50961" lon="2.39379">
        <ele>1463.7</ele>
        <time>2020-09-03T07:15:31.411Z</time>
      </trkpt>
      <trkpt lat="42.50982" lon="2.39376">
        <ele>1459.7</ele>
        <time>2020-09-03T07:15:39.287Z</time>
      </trkpt>
      <trkpt lat="42.50993" lon="2.39371">
        <ele>1458.2</ele>
        <time>2020-09-03T07:15:43.614Z</time>
      </trkpt>
      <trkpt lat="42.51003" lon="2.39368">
        <ele>1441.3</ele>
        <time>2020-09-03T07:15:47.435Z</time>
      </trkpt>
      <trkpt lat="42.51015" lon="2.39369">
        <ele>1440.6</ele>
        <time>2020-09-03T07:15:51.824Z</time>
      </trkpt>
      <trkpt lat="42.51026" lon="2.39365">
        <ele>1439.6</ele>
        <time>2020-09-03T07:15:56.072Z</time>
      </trkpt>
      <trkpt lat="42.51037" lon="2.39359">
        <ele>1438.6</ele>
        <time>2020-09-03T07:16:00.494Z</time>
      </trkpt>
      <trkpt lat="42.51043" lon="2.39359">
        <ele>1438</ele>
        <time>2020-09-03T07:16:02.732Z</time>
      </trkpt>
      <trkpt lat="42.51045" lon="2.39355">
        <ele>1437.8</ele>
        <time>2020-09-03T07:16:04.055Z</time>
      </trkpt>
      <trkpt lat="42.5105" lon="2.39355">
        <ele>1437.3</ele>
        <time>2020-09-03T07:16:05.920Z</time>
      </trkpt>
      <trkpt lat="42.51057" lon="2.39355">
        <ele>1436.5</ele>
        <time>2020-09-03T07:16:08.531Z</time>
      </trkpt>
      <trkpt lat="42.51065" lon="2.39351">
        <ele>1435.6</ele>
        <time>2020-09-03T07:16:11.712Z</time>
      </trkpt>
      <trkpt lat="42.51071" lon="2.39347">
        <ele>1434.9</ele>
        <time>2020-09-03T07:16:14.205Z</time>
      </trkpt>
      <trkpt lat="42.51076" lon="2.39343">
        <ele>1434.1</ele>
        <time>2020-09-03T07:16:16.370Z</time>
      </trkpt>
      <trkpt lat="42.51083" lon="2.39345">
        <ele>1433.8</ele>
        <time>2020-09-03T07:16:19.379Z</time>
      </trkpt>
      <trkpt lat="42.5109" lon="2.39346">
        <ele>1426.7</ele>
        <time>2020-09-03T07:16:22.004Z</time>
      </trkpt>
      <trkpt lat="42.51098" lon="2.39343">
        <ele>1425.5</ele>
        <time>2020-09-03T07:16:25.100Z</time>
      </trkpt>
      <trkpt lat="42.51106" lon="2.3934">
        <ele>1423.8</ele>
        <time>2020-09-03T07:16:28.196Z</time>
      </trkpt>
      <trkpt lat="42.5111" lon="2.39338">
        <ele>1423.2</ele>
        <time>2020-09-03T07:16:29.786Z</time>
      </trkpt>
      <trkpt lat="42.51108" lon="2.39336">
        <ele>1423.8</ele>
        <time>2020-09-03T07:16:52.799Z</time>
      </trkpt>
      <trkpt lat="42.51103" lon="2.39334">
        <ele>1425</ele>
        <time>2020-09-03T07:17:41.079Z</time>
      </trkpt>
      <trkpt lat="42.51097" lon="2.39332">
        <ele>1422.6</ele>
        <time>2020-09-03T07:17:43.383Z</time>
      </trkpt>
      <trkpt lat="42.51096" lon="2.39327">
        <ele>1422</ele>
        <time>2020-09-03T07:17:44.808Z</time>
      </trkpt>
      <trkpt lat="42.51103" lon="2.39316">
        <ele>1416.9</ele>
        <time>2020-09-03T07:17:48.803Z</time>
      </trkpt>
      <trkpt lat="42.51111" lon="2.39312">
        <ele>1414.5</ele>
        <time>2020-09-03T07:17:51.984Z</time>
      </trkpt>
      <trkpt lat="42.51118" lon="2.39312">
        <ele>1413.3</ele>
        <time>2020-09-03T07:17:54.595Z</time>
      </trkpt>
      <trkpt lat="42.51132" lon="2.39311">
        <ele>1411.6</ele>
        <time>2020-09-03T07:17:59.824Z</time>
      </trkpt>
      <trkpt lat="42.5115" lon="2.39318">
        <ele>1411.4</ele>
        <time>2020-09-03T07:18:10.939Z</time>
      </trkpt>
      <trkpt lat="42.51161" lon="2.39321">
        <ele>1411.9</ele>
        <time>2020-09-03T07:18:56.428Z</time>
      </trkpt>
      <trkpt lat="42.51169" lon="2.39321">
        <ele>1410.9</ele>
        <time>2020-09-03T07:18:59.412Z</time>
      </trkpt>
      <trkpt lat="42.51175" lon="2.39314">
        <ele>1409.4</ele>
        <time>2020-09-03T07:19:02.364Z</time>
      </trkpt>
      <trkpt lat="42.51177" lon="2.39303">
        <ele>1407.5</ele>
        <time>2020-09-03T07:19:05.479Z</time>
      </trkpt>
      <trkpt lat="42.51174" lon="2.39293">
        <ele>1405.5</ele>
        <time>2020-09-03T07:19:08.447Z</time>
      </trkpt>
      <trkpt lat="42.5117" lon="2.39279">
        <ele>1402.4</ele>
        <time>2020-09-03T07:19:12.576Z</time>
      </trkpt>
      <trkpt lat="42.51167" lon="2.39269">
        <ele>1399.6</ele>
        <time>2020-09-03T07:19:15.544Z</time>
      </trkpt>
      <trkpt lat="42.51164" lon="2.39263">
        <ele>1398.2</ele>
        <time>2020-09-03T07:19:17.538Z</time>
      </trkpt>
      <trkpt lat="42.51152" lon="2.39249">
        <ele>1384.5</ele>
        <time>2020-09-03T07:19:23.442Z</time>
      </trkpt>
      <trkpt lat="42.51151" lon="2.39248">
        <ele>1384.4</ele>
        <time>2020-09-03T07:19:23.905Z</time>
        <extensions>
          <visugpx:TrkExtension xmlns:visugpx="https://www.visugpx.com/editgpx/">
            <visugpx:node>8</visugpx:node>
            </visugpx:TrkExtension>
        </extensions>
      </trkpt>
      <trkpt lat="42.5113" lon="2.39237">
        <ele>1381</ele>
        <time>2020-09-03T07:19:32.302Z</time>
      </trkpt>
      <trkpt lat="42.51114" lon="2.39233">
        <ele>1381.9</ele>
        <time>2020-09-03T07:20:43.077Z</time>
      </trkpt>
      <trkpt lat="42.51097" lon="2.39232">
        <ele>1385.1</ele>
        <time>2020-09-03T07:23:20.675Z</time>
      </trkpt>
      <trkpt lat="42.51091" lon="2.39224">
        <ele>1382.6</ele>
        <time>2020-09-03T07:23:23.813Z</time>
      </trkpt>
      <trkpt lat="42.51091" lon="2.39215">
        <ele>1379.2</ele>
        <time>2020-09-03T07:23:26.288Z</time>
      </trkpt>
      <trkpt lat="42.51103" lon="2.39211">
        <ele>1377.2</ele>
        <time>2020-09-03T07:23:30.897Z</time>
      </trkpt>
      <trkpt lat="42.51123" lon="2.39198">
        <ele>1372.5</ele>
        <time>2020-09-03T07:23:39.169Z</time>
      </trkpt>
      <trkpt lat="42.51127" lon="2.39189">
        <ele>1370.3</ele>
        <time>2020-09-03T07:23:42.059Z</time>
      </trkpt>
      <trkpt lat="42.51117" lon="2.39178">
        <ele>1369</ele>
        <time>2020-09-03T07:23:46.861Z</time>
      </trkpt>
      <trkpt lat="42.511" lon="2.39163">
        <ele>1351.3</ele>
        <time>2020-09-03T07:23:54.426Z</time>
      </trkpt>
      <trkpt lat="42.5109" lon="2.39144">
        <ele>1348.9</ele>
        <time>2020-09-03T07:24:00.845Z</time>
      </trkpt>
      <trkpt lat="42.5109" lon="2.39134">
        <ele>1346.4</ele>
        <time>2020-09-03T07:24:03.594Z</time>
      </trkpt>
      <trkpt lat="42.51099" lon="2.39129">
        <ele>1344.5</ele>
        <time>2020-09-03T07:24:07.222Z</time>
      </trkpt>
      <trkpt lat="42.51115" lon="2.39128">
        <ele>1342.3</ele>
        <time>2020-09-03T07:24:13.197Z</time>
      </trkpt>
      <trkpt lat="42.5114" lon="2.39111">
        <ele>1335.1</ele>
        <time>2020-09-03T07:24:23.628Z</time>
      </trkpt>
      <trkpt lat="42.51163" lon="2.39093">
        <ele>1320.1</ele>
        <time>2020-09-03T07:24:33.532Z</time>
      </trkpt>
      <trkpt lat="42.51163" lon="2.39085">
        <ele>1314.2</ele>
        <time>2020-09-03T07:24:35.732Z</time>
      </trkpt>
      <trkpt lat="42.51151" lon="2.39082">
        <ele>1318.2</ele>
        <time>2020-09-03T07:26:28.744Z</time>
      </trkpt>
      <trkpt lat="42.51139" lon="2.39079">
        <ele>1323</ele>
        <time>2020-09-03T07:28:21.757Z</time>
      </trkpt>
      <trkpt lat="42.5115" lon="2.39045">
        <ele>1321.9</ele>
        <time>2020-09-03T07:28:33.458Z</time>
      </trkpt>
      <trkpt lat="42.51157" lon="2.39007">
        <ele>1312.2</ele>
        <time>2020-09-03T07:28:44.228Z</time>
      </trkpt>
      <trkpt lat="42.51172" lon="2.38971">
        <ele>1295.1</ele>
        <time>2020-09-03T07:28:55.598Z</time>
      </trkpt>
      <trkpt lat="42.51175" lon="2.38968">
        <ele>1294.9</ele>
        <time>2020-09-03T07:28:57.011Z</time>
      </trkpt>
      <trkpt lat="42.51215" lon="2.3893">
        <ele>1287.5</ele>
        <time>2020-09-03T07:29:15.226Z</time>
      </trkpt>
      <trkpt lat="42.5123" lon="2.38913">
        <ele>1287.4</ele>
        <time>2020-09-03T07:29:58.747Z</time>
      </trkpt>
      <trkpt lat="42.51241" lon="2.38901">
        <ele>1285</ele>
        <time>2020-09-03T07:30:04.012Z</time>
      </trkpt>
      <trkpt lat="42.51247" lon="2.38894">
        <ele>1286.9</ele>
        <time>2020-09-03T07:31:17.306Z</time>
      </trkpt>
      <trkpt lat="42.51255" lon="2.38882">
        <ele>1260.2</ele>
        <time>2020-09-03T07:31:21.754Z</time>
      </trkpt>
      <trkpt lat="42.5126" lon="2.38866">
        <ele>1261.5</ele>
        <time>2020-09-03T07:32:42.917Z</time>
      </trkpt>
      <trkpt lat="42.51269" lon="2.38843">
        <ele>1264.9</ele>
        <time>2020-09-03T07:35:40.693Z</time>
      </trkpt>
      <trkpt lat="42.51275" lon="2.38833">
        <ele>1274.1</ele>
        <time>2020-09-03T07:37:08.722Z</time>
      </trkpt>
      <trkpt lat="42.51284" lon="2.38825">
        <ele>1271.6</ele>
        <time>2020-09-03T07:37:12.735Z</time>
      </trkpt>
      <trkpt lat="42.513" lon="2.38817">
        <ele>1266.6</ele>
        <time>2020-09-03T07:37:19.096Z</time>
      </trkpt>
      <trkpt lat="42.51312" lon="2.38812">
        <ele>1263.2</ele>
        <time>2020-09-03T07:37:23.778Z</time>
      </trkpt>
      <trkpt lat="42.51322" lon="2.38804">
        <ele>1263.3</ele>
        <time>2020-09-03T07:37:54.042Z</time>
      </trkpt>
      <trkpt lat="42.51337" lon="2.3879">
        <ele>1238.3</ele>
        <time>2020-09-03T07:38:00.834Z</time>
      </trkpt>
      <trkpt lat="42.51352" lon="2.38774">
        <ele>1240.2</ele>
        <time>2020-09-03T07:39:59.490Z</time>
      </trkpt>
      <trkpt lat="42.51369" lon="2.38753">
        <ele>1237.5</ele>
        <time>2020-09-03T07:40:08.066Z</time>
      </trkpt>
      <trkpt lat="42.51387" lon="2.38732">
        <ele>1251.7</ele>
        <time>2020-09-03T07:43:47.945Z</time>
      </trkpt>
      <trkpt lat="42.51408" lon="2.38713">
        <ele>1251.6</ele>
        <time>2020-09-03T07:44:45.087Z</time>
      </trkpt>
      <trkpt lat="42.51428" lon="2.38697">
        <ele>1232.4</ele>
        <time>2020-09-03T07:44:53.747Z</time>
      </trkpt>
      <trkpt lat="42.5144" lon="2.38693">
        <ele>1230.9</ele>
        <time>2020-09-03T07:44:58.357Z</time>
      </trkpt>
      <trkpt lat="42.51453" lon="2.38693">
        <ele>1228</ele>
        <time>2020-09-03T07:45:03.206Z</time>
      </trkpt>
      <trkpt lat="42.5146" lon="2.38692">
        <ele>1226.7</ele>
        <time>2020-09-03T07:45:05.831Z</time>
      </trkpt>
      <trkpt lat="42.51467" lon="2.38689">
        <ele>1225.7</ele>
        <time>2020-09-03T07:45:08.569Z</time>
      </trkpt>
      <trkpt lat="42.51479" lon="2.38682">
        <ele>1223.9</ele>
        <time>2020-09-03T07:45:13.442Z</time>
      </trkpt>
      <trkpt lat="42.51491" lon="2.38678">
        <ele>1222.1</ele>
        <time>2020-09-03T07:45:18.051Z</time>
      </trkpt>
      <trkpt lat="42.51497" lon="2.38678">
        <ele>1221.6</ele>
        <time>2020-09-03T07:45:20.289Z</time>
      </trkpt>
      <trkpt lat="42.51503" lon="2.38681">
        <ele>1209.7</ele>
        <time>2020-09-03T07:45:22.674Z</time>
      </trkpt>
      <trkpt lat="42.51515" lon="2.38687">
        <ele>1204.5</ele>
        <time>2020-09-03T07:45:27.445Z</time>
      </trkpt>
      <trkpt lat="42.51521" lon="2.38689">
        <ele>1202.7</ele>
        <time>2020-09-03T07:45:29.749Z</time>
      </trkpt>
      <trkpt lat="42.51524" lon="2.38689">
        <ele>1201.8</ele>
        <time>2020-09-03T07:45:30.868Z</time>
      </trkpt>
      <trkpt lat="42.51527" lon="2.38689">
        <ele>1201.2</ele>
        <time>2020-09-03T07:45:31.987Z</time>
      </trkpt>
      <trkpt lat="42.51533" lon="2.38683">
        <ele>1200.6</ele>
        <time>2020-09-03T07:45:34.768Z</time>
      </trkpt>
      <trkpt lat="42.51537" lon="2.38678">
        <ele>1200.1</ele>
        <time>2020-09-03T07:45:36.796Z</time>
      </trkpt>
      <trkpt lat="42.51539" lon="2.38672">
        <ele>1200</ele>
        <time>2020-09-03T07:45:39.345Z</time>
      </trkpt>
      <trkpt lat="42.51541" lon="2.38665">
        <ele>1204.5</ele>
        <time>2020-09-03T07:46:30.597Z</time>
      </trkpt>
      <trkpt lat="42.5154" lon="2.38659">
        <ele>1204.4</ele>
        <time>2020-09-03T07:46:32.938Z</time>
      </trkpt>
      <trkpt lat="42.51539" lon="2.38648">
        <ele>1204.3</ele>
        <time>2020-09-03T07:46:37.690Z</time>
      </trkpt>
      <trkpt lat="42.51537" lon="2.38644">
        <ele>1204.6</ele>
        <time>2020-09-03T07:46:56.969Z</time>
      </trkpt>
      <trkpt lat="42.51527" lon="2.38631">
        <ele>1205.7</ele>
        <time>2020-09-03T07:48:09.007Z</time>
      </trkpt>
      <trkpt lat="42.51516" lon="2.38614">
        <ele>1206.9</ele>
        <time>2020-09-03T07:49:30.786Z</time>
      </trkpt>
      <trkpt lat="42.51513" lon="2.38601">
        <ele>1208.4</ele>
        <time>2020-09-03T07:51:03.783Z</time>
      </trkpt>
      <trkpt lat="42.51512" lon="2.38586">
        <ele>1210.7</ele>
        <time>2020-09-03T07:52:46.603Z</time>
      </trkpt>
      <trkpt lat="42.51511" lon="2.38577">
        <ele>1205.4</ele>
        <time>2020-09-03T07:52:49.105Z</time>
      </trkpt>
      <trkpt lat="42.51508" lon="2.38549">
        <ele>1196.2</ele>
        <time>2020-09-03T07:52:56.885Z</time>
      </trkpt>
      <trkpt lat="42.51496" lon="2.38499">
        <ele>1196.9</ele>
        <time>2020-09-03T07:54:48.401Z</time>
      </trkpt>
      <trkpt lat="42.51492" lon="2.38474">
        <ele>1200.1</ele>
        <time>2020-09-03T07:57:43.047Z</time>
      </trkpt>
      <trkpt lat="42.51484" lon="2.38443">
        <ele>1195.5</ele>
        <time>2020-09-03T07:57:52.078Z</time>
      </trkpt>
      <trkpt lat="42.51468" lon="2.38405">
        <ele>1183.1</ele>
        <time>2020-09-03T07:58:04.110Z</time>
      </trkpt>
      <trkpt lat="42.51451" lon="2.38366">
        <ele>1184.7</ele>
        <time>2020-09-03T08:00:22.437Z</time>
      </trkpt>
      <trkpt lat="42.5145" lon="2.38336">
        <ele>1183.6</ele>
        <time>2020-09-03T08:00:31.118Z</time>
      </trkpt>
      <trkpt lat="42.51454" lon="2.38287">
        <ele>1170.5</ele>
        <time>2020-09-03T08:00:44.673Z</time>
      </trkpt>
      <trkpt lat="42.51461" lon="2.38231">
        <ele>1158.2</ele>
        <time>2020-09-03T08:01:00.290Z</time>
      </trkpt>
      <trkpt lat="42.51463" lon="2.38217">
        <ele>1156.6</ele>
        <time>2020-09-03T08:01:04.211Z</time>
        <extensions>
          <visugpx:TrkExtension xmlns:visugpx="https://www.visugpx.com/editgpx/">
            <visugpx:node>9</visugpx:node>
            </visugpx:TrkExtension>
        </extensions>
      </trkpt>
      <trkpt lat="42.51465" lon="2.38204">
        <ele>1155.1</ele>
        <time>2020-09-03T08:01:07.862Z</time>
      </trkpt>
      <trkpt lat="42.51468" lon="2.38184">
        <ele>1152</ele>
        <time>2020-09-03T08:01:13.474Z</time>
      </trkpt>
      <trkpt lat="42.51468" lon="2.38171">
        <ele>1150.7</ele>
        <time>2020-09-03T08:01:17.048Z</time>
      </trkpt>
      <trkpt lat="42.51469" lon="2.38164">
        <ele>1140</ele>
        <time>2020-09-03T08:01:19.008Z</time>
      </trkpt>
      <trkpt lat="42.51468" lon="2.38155">
        <ele>1139.8</ele>
        <time>2020-09-03T08:01:22.189Z</time>
      </trkpt>
      <trkpt lat="42.51468" lon="2.38147">
        <ele>1139.6</ele>
        <time>2020-09-03T08:01:24.870Z</time>
      </trkpt>
      <trkpt lat="42.51467" lon="2.38137">
        <ele>1139.1</ele>
        <time>2020-09-03T08:01:27.644Z</time>
      </trkpt>
      <trkpt lat="42.51469" lon="2.3813">
        <ele>1138.2</ele>
        <time>2020-09-03T08:01:29.709Z</time>
      </trkpt>
      <trkpt lat="42.51472" lon="2.38124">
        <ele>1137.2</ele>
        <time>2020-09-03T08:01:31.702Z</time>
      </trkpt>
      <trkpt lat="42.51475" lon="2.3812">
        <ele>1136.2</ele>
        <time>2020-09-03T08:01:33.271Z</time>
      </trkpt>
      <trkpt lat="42.51483" lon="2.38116">
        <ele>1134.7</ele>
        <time>2020-09-03T08:01:36.451Z</time>
      </trkpt>
      <trkpt lat="42.51497" lon="2.38111">
        <ele>1132.5</ele>
        <time>2020-09-03T08:01:41.851Z</time>
      </trkpt>
      <trkpt lat="42.51498" lon="2.38101">
        <ele>1130</ele>
        <time>2020-09-03T08:01:44.626Z</time>
      </trkpt>
      <trkpt lat="42.51494" lon="2.38102">
        <ele>1130.7</ele>
        <time>2020-09-03T08:02:22.297Z</time>
      </trkpt>
      <trkpt lat="42.51491" lon="2.38103">
        <ele>1131.4</ele>
        <time>2020-09-03T08:02:50.908Z</time>
      </trkpt>
      <trkpt lat="42.51483" lon="2.38103">
        <ele>1132.6</ele>
        <time>2020-09-03T08:04:05.002Z</time>
      </trkpt>
      <trkpt lat="42.51482" lon="2.38103">
        <ele>1132.9</ele>
        <time>2020-09-03T08:04:14.264Z</time>
      </trkpt>
      <trkpt lat="42.5147" lon="2.38104">
        <ele>1135.1</ele>
        <time>2020-09-03T08:06:05.615Z</time>
      </trkpt>
      <trkpt lat="42.51455" lon="2.38106">
        <ele>1137.7</ele>
        <time>2020-09-03T08:08:25.210Z</time>
      </trkpt>
      <trkpt lat="42.51449" lon="2.38105">
        <ele>1138.4</ele>
        <time>2020-09-03T08:09:09.825Z</time>
      </trkpt>
      <trkpt lat="42.51444" lon="2.38104">
        <ele>1138.6</ele>
        <time>2020-09-03T08:09:28.861Z</time>
      </trkpt>
      <trkpt lat="42.51435" lon="2.38097">
        <ele>1138.4</ele>
        <time>2020-09-03T08:09:34.393Z</time>
      </trkpt>
      <trkpt lat="42.51423" lon="2.38089">
        <ele>1137.3</ele>
        <time>2020-09-03T08:09:39.380Z</time>
      </trkpt>
      <trkpt lat="42.51405" lon="2.38077">
        <ele>1136.9</ele>
        <time>2020-09-03T08:09:49.991Z</time>
      </trkpt>
    </trkseg>
  </trk>
</gpx>